sensor_id;sensor_type;location;lat;lon;timestamp;P1;durP1;ratioP1;P2;durP2;ratioP2
25982;SDS011;13773;48.868;10.730;2023-02-13T00:00:15;148.93;;;42.50;;
25982;SDS011;13773;48.868;10.730;2023-02-13T00:02:43;159.07;;;44.77;;
25982;SDS011;13773;48.868;10.730;2023-02-13T00:05:09;138.57;;;44.03;;
25982;SDS011;13773;48.868;10.730;2023-02-13T00:07:35;138.83;;;42.23;;
25982;SDS011;13773;48.868;10.730;2023-02-13T00:10:00;132.90;;;42.07;;
25982;SDS011;13773;48.868;10.730;2023-02-13T00:12:26;131.37;;;41.40;;
25982;SDS011;13773;48.868;10.730;2023-02-13T00:14:52;117.90;;;40.67;;
25982;SDS011;13773;48.868;10.730;2023-02-13T00:17:18;130.53;;;41.73;;
25982;SDS011;13773;48.868;10.730;2023-02-13T00:19:43;131.17;;;42.47;;
25982;SDS011;13773;48.868;10.730;2023-02-13T00:22:09;139.87;;;41.07;;
25982;SDS011;13773;48.868;10.730;2023-02-13T00:24:35;131.00;;;41.87;;
25982;SDS011;13773;48.868;10.730;2023-02-13T00:27:01;118.43;;;39.63;;
25982;SDS011;13773;48.868;10.730;2023-02-13T00:29:27;118.60;;;39.50;;
25982;SDS011;13773;48.868;10.730;2023-02-13T00:31:52;125.57;;;40.80;;
25982;SDS011;13773;48.868;10.730;2023-02-13T00:34:18;127.97;;;39.83;;
25982;SDS011;13773;48.868;10.730;2023-02-13T00:36:43;126.73;;;40.20;;
25982;SDS011;13773;48.868;10.730;2023-02-13T00:39:10;136.57;;;41.70;;
25982;SDS011;13773;48.868;10.730;2023-02-13T00:41:36;147.80;;;44.40;;
25982;SDS011;13773;48.868;10.730;2023-02-13T00:44:03;137.57;;;41.23;;
25982;SDS011;13773;48.868;10.730;2023-02-13T00:46:28;149.53;;;41.43;;
25982;SDS011;13773;48.868;10.730;2023-02-13T00:48:54;137.77;;;41.43;;
25982;SDS011;13773;48.868;10.730;2023-02-13T00:51:20;146.47;;;42.30;;
25982;SDS011;13773;48.868;10.730;2023-02-13T00:53:45;142.33;;;42.17;;
25982;SDS011;13773;48.868;10.730;2023-02-13T00:56:11;141.27;;;41.80;;
25982;SDS011;13773;48.868;10.730;2023-02-13T00:58:37;141.50;;;41.63;;
25982;SDS011;13773;48.868;10.730;2023-02-13T01:01:03;140.17;;;41.93;;
25982;SDS011;13773;48.868;10.730;2023-02-13T01:03:28;135.70;;;40.27;;
25982;SDS011;13773;48.868;10.730;2023-02-13T01:05:55;125.77;;;40.13;;
25982;SDS011;13773;48.868;10.730;2023-02-13T01:08:21;143.57;;;41.07;;
25982;SDS011;13773;48.868;10.730;2023-02-13T01:10:48;132.00;;;39.83;;
25982;SDS011;13773;48.868;10.730;2023-02-13T01:13:14;143.10;;;40.33;;
25982;SDS011;13773;48.868;10.730;2023-02-13T01:15:42;141.97;;;41.37;;
25982;SDS011;13773;48.868;10.730;2023-02-13T01:18:08;132.00;;;40.63;;
25982;SDS011;13773;48.868;10.730;2023-02-13T01:20:36;163.37;;;41.43;;
25982;SDS011;13773;48.868;10.730;2023-02-13T01:23:02;170.40;;;41.70;;
25982;SDS011;13773;48.868;10.730;2023-02-13T01:25:28;156.40;;;41.00;;
25982;SDS011;13773;48.868;10.730;2023-02-13T01:27:54;152.47;;;42.30;;
25982;SDS011;13773;48.868;10.730;2023-02-13T01:30:20;153.70;;;40.67;;
25982;SDS011;13773;48.868;10.730;2023-02-13T01:32:46;165.30;;;42.00;;
25982;SDS011;13773;48.868;10.730;2023-02-13T01:35:12;165.70;;;41.73;;
25982;SDS011;13773;48.868;10.730;2023-02-13T01:37:39;149.30;;;39.87;;
25982;SDS011;13773;48.868;10.730;2023-02-13T01:40:05;158.43;;;41.43;;
25982;SDS011;13773;48.868;10.730;2023-02-13T01:42:33;155.67;;;41.23;;
25982;SDS011;13773;48.868;10.730;2023-02-13T01:45:18;151.37;;;41.97;;
25982;SDS011;13773;48.868;10.730;2023-02-13T01:47:56;152.87;;;40.97;;
25982;SDS011;13773;48.868;10.730;2023-02-13T01:50:36;161.53;;;41.23;;
25982;SDS011;13773;48.868;10.730;2023-02-13T01:53:09;149.83;;;41.70;;
25982;SDS011;13773;48.868;10.730;2023-02-13T01:56:01;139.03;;;39.73;;
25982;SDS011;13773;48.868;10.730;2023-02-13T01:58:34;151.00;;;40.33;;
25982;SDS011;13773;48.868;10.730;2023-02-13T02:01:03;140.83;;;39.50;;
25982;SDS011;13773;48.868;10.730;2023-02-13T02:06:27;120.87;;;36.83;;
25982;SDS011;13773;48.868;10.730;2023-02-13T02:08:56;137.77;;;39.57;;
25982;SDS011;13773;48.868;10.730;2023-02-13T02:11:31;141.27;;;39.83;;
25982;SDS011;13773;48.868;10.730;2023-02-13T02:14:03;148.63;;;39.87;;
25982;SDS011;13773;48.868;10.730;2023-02-13T02:16:29;138.50;;;40.13;;
25982;SDS011;13773;48.868;10.730;2023-02-13T02:18:57;134.20;;;38.07;;
25982;SDS011;13773;48.868;10.730;2023-02-13T02:21:36;141.30;;;39.13;;
25982;SDS011;13773;48.868;10.730;2023-02-13T02:32:34;134.83;;;38.23;;
25982;SDS011;13773;48.868;10.730;2023-02-13T02:37:47;144.87;;;37.47;;
25982;SDS011;13773;48.868;10.730;2023-02-13T02:51:53;140.13;;;33.40;;
25982;SDS011;13773;48.868;10.730;2023-02-13T02:57:15;130.00;;;34.80;;
25982;SDS011;13773;48.868;10.730;2023-02-13T03:00:41;147.27;;;33.30;;
25982;SDS011;13773;48.868;10.730;2023-02-13T03:03:27;113.17;;;32.63;;
25982;SDS011;13773;48.868;10.730;2023-02-13T03:06:13;209.50;;;37.23;;
25982;SDS011;13773;48.868;10.730;2023-02-13T03:08:53;215.60;;;37.67;;
25982;SDS011;13773;48.868;10.730;2023-02-13T03:11:48;169.70;;;36.70;;
25982;SDS011;13773;48.868;10.730;2023-02-13T03:14:34;123.17;;;33.67;;
25982;SDS011;13773;48.868;10.730;2023-02-13T03:17:01;174.20;;;36.27;;
25982;SDS011;13773;48.868;10.730;2023-02-13T03:22:33;165.17;;;33.60;;
25982;SDS011;13773;48.868;10.730;2023-02-13T03:30:30;137.60;;;28.80;;
25982;SDS011;13773;48.868;10.730;2023-02-13T03:36:25;149.73;;;30.23;;
25982;SDS011;13773;48.868;10.730;2023-02-13T03:42:00;115.10;;;29.40;;
25982;SDS011;13773;48.868;10.730;2023-02-13T03:44:50;199.70;;;33.37;;
25982;SDS011;13773;48.868;10.730;2023-02-13T03:47:43;198.53;;;30.70;;
25982;SDS011;13773;48.868;10.730;2023-02-13T03:50:11;181.87;;;30.67;;
25982;SDS011;13773;48.868;10.730;2023-02-13T03:55:24;129.70;;;31.80;;
25982;SDS011;13773;48.868;10.730;2023-02-13T03:58:28;213.27;;;32.77;;
25982;SDS011;13773;48.868;10.730;2023-02-13T04:01:25;161.97;;;29.30;;
25982;SDS011;13773;48.868;10.730;2023-02-13T04:06:56;130.93;;;31.37;;
25982;SDS011;13773;48.868;10.730;2023-02-13T04:09:25;192.63;;;33.83;;
25982;SDS011;13773;48.868;10.730;2023-02-13T04:14:38;109.90;;;29.03;;
25982;SDS011;13773;48.868;10.730;2023-02-13T04:17:32;219.63;;;34.63;;
25982;SDS011;13773;48.868;10.730;2023-02-13T04:20:00;123.93;;;26.83;;
25982;SDS011;13773;48.868;10.730;2023-02-13T04:22:26;111.63;;;28.87;;
25982;SDS011;13773;48.868;10.730;2023-02-13T04:24:52;155.43;;;30.27;;
25982;SDS011;13773;48.868;10.730;2023-02-13T04:27:17;123.97;;;29.93;;
25982;SDS011;13773;48.868;10.730;2023-02-13T04:29:43;146.47;;;29.30;;
25982;SDS011;13773;48.868;10.730;2023-02-13T04:32:09;106.33;;;28.03;;
25982;SDS011;13773;48.868;10.730;2023-02-13T04:34:36;150.17;;;27.73;;
25982;SDS011;13773;48.868;10.730;2023-02-13T04:37:02;111.60;;;27.40;;
25982;SDS011;13773;48.868;10.730;2023-02-13T04:39:27;211.33;;;32.07;;
25982;SDS011;13773;48.868;10.730;2023-02-13T04:41:53;122.73;;;26.60;;
25982;SDS011;13773;48.868;10.730;2023-02-13T04:44:18;86.37;;;25.97;;
25982;SDS011;13773;48.868;10.730;2023-02-13T04:46:44;88.70;;;25.70;;
25982;SDS011;13773;48.868;10.730;2023-02-13T04:49:10;89.80;;;24.13;;
25982;SDS011;13773;48.868;10.730;2023-02-13T04:51:35;114.27;;;24.87;;
25982;SDS011;13773;48.868;10.730;2023-02-13T04:54:01;71.93;;;23.27;;
25982;SDS011;13773;48.868;10.730;2023-02-13T04:56:27;111.80;;;24.27;;
25982;SDS011;13773;48.868;10.730;2023-02-13T04:58:53;77.97;;;21.63;;
25982;SDS011;13773;48.868;10.730;2023-02-13T05:01:20;61.30;;;21.07;;
25982;SDS011;13773;48.868;10.730;2023-02-13T05:03:46;85.27;;;22.77;;
25982;SDS011;13773;48.868;10.730;2023-02-13T05:06:11;73.47;;;22.23;;
25982;SDS011;13773;48.868;10.730;2023-02-13T05:08:37;103.43;;;23.17;;
25982;SDS011;13773;48.868;10.730;2023-02-13T05:11:03;139.90;;;24.93;;
25982;SDS011;13773;48.868;10.730;2023-02-13T05:13:29;84.67;;;23.10;;
25982;SDS011;13773;48.868;10.730;2023-02-13T05:15:54;79.03;;;22.37;;
25982;SDS011;13773;48.868;10.730;2023-02-13T05:18:20;79.17;;;22.60;;
25982;SDS011;13773;48.868;10.730;2023-02-13T05:20:46;80.17;;;22.53;;
25982;SDS011;13773;48.868;10.730;2023-02-13T05:23:31;91.17;;;21.83;;
25982;SDS011;13773;48.868;10.730;2023-02-13T05:25:57;79.87;;;22.67;;
25982;SDS011;13773;48.868;10.730;2023-02-13T05:28:23;82.83;;;22.80;;
25982;SDS011;13773;48.868;10.730;2023-02-13T05:31:07;95.60;;;23.97;;
25982;SDS011;13773;48.868;10.730;2023-02-13T05:33:33;88.57;;;23.73;;
25982;SDS011;13773;48.868;10.730;2023-02-13T05:35:58;71.10;;;23.80;;
25982;SDS011;13773;48.868;10.730;2023-02-13T05:38:24;78.13;;;25.57;;
25982;SDS011;13773;48.868;10.730;2023-02-13T05:40:50;74.53;;;25.07;;
25982;SDS011;13773;48.868;10.730;2023-02-13T05:43:15;72.60;;;24.17;;
25982;SDS011;13773;48.868;10.730;2023-02-13T05:45:41;73.77;;;24.50;;
25982;SDS011;13773;48.868;10.730;2023-02-13T05:48:07;71.03;;;24.23;;
25982;SDS011;13773;48.868;10.730;2023-02-13T05:50:32;70.20;;;24.47;;
25982;SDS011;13773;48.868;10.730;2023-02-13T05:52:58;93.13;;;25.87;;
25982;SDS011;13773;48.868;10.730;2023-02-13T05:55:23;73.43;;;24.53;;
25982;SDS011;13773;48.868;10.730;2023-02-13T05:57:49;104.40;;;28.23;;
25982;SDS011;13773;48.868;10.730;2023-02-13T06:00:19;92.60;;;25.33;;
25982;SDS011;13773;48.868;10.730;2023-02-13T06:02:45;82.23;;;24.97;;
25982;SDS011;13773;48.868;10.730;2023-02-13T06:05:11;88.37;;;25.03;;
25982;SDS011;13773;48.868;10.730;2023-02-13T06:07:36;66.37;;;23.70;;
25982;SDS011;13773;48.868;10.730;2023-02-13T06:10:02;75.00;;;25.57;;
25982;SDS011;13773;48.868;10.730;2023-02-13T06:12:28;147.40;;;28.53;;
25982;SDS011;13773;48.868;10.730;2023-02-13T06:14:53;103.30;;;26.40;;
25982;SDS011;13773;48.868;10.730;2023-02-13T06:17:19;96.67;;;25.77;;
25982;SDS011;13773;48.868;10.730;2023-02-13T06:19:45;73.20;;;25.13;;
25982;SDS011;13773;48.868;10.730;2023-02-13T06:22:10;69.67;;;23.97;;
25982;SDS011;13773;48.868;10.730;2023-02-13T06:24:36;74.47;;;25.00;;
25982;SDS011;13773;48.868;10.730;2023-02-13T06:27:01;126.37;;;27.97;;
25982;SDS011;13773;48.868;10.730;2023-02-13T06:29:27;92.97;;;26.00;;
25982;SDS011;13773;48.868;10.730;2023-02-13T06:31:55;80.10;;;27.23;;
25982;SDS011;13773;48.868;10.730;2023-02-13T06:34:21;86.50;;;27.03;;
25982;SDS011;13773;48.868;10.730;2023-02-13T06:36:47;80.73;;;27.10;;
25982;SDS011;13773;48.868;10.730;2023-02-13T06:39:12;80.80;;;26.23;;
25982;SDS011;13773;48.868;10.730;2023-02-13T06:41:38;69.77;;;26.53;;
25982;SDS011;13773;48.868;10.730;2023-02-13T06:44:04;78.03;;;26.33;;
25982;SDS011;13773;48.868;10.730;2023-02-13T06:46:30;94.23;;;26.63;;
25982;SDS011;13773;48.868;10.730;2023-02-13T06:48:55;70.13;;;25.87;;
25982;SDS011;13773;48.868;10.730;2023-02-13T06:51:21;62.67;;;23.73;;
25982;SDS011;13773;48.868;10.730;2023-02-13T06:53:46;58.60;;;23.20;;
25982;SDS011;13773;48.868;10.730;2023-02-13T06:56:12;70.17;;;24.07;;
25982;SDS011;13773;48.868;10.730;2023-02-13T06:58:38;67.27;;;22.87;;
25982;SDS011;13773;48.868;10.730;2023-02-13T07:01:04;65.57;;;23.40;;
25982;SDS011;13773;48.868;10.730;2023-02-13T07:03:29;64.23;;;22.27;;
25982;SDS011;13773;48.868;10.730;2023-02-13T07:05:55;64.97;;;22.33;;
25982;SDS011;13773;48.868;10.730;2023-02-13T07:08:21;54.57;;;21.50;;
25982;SDS011;13773;48.868;10.730;2023-02-13T07:10:47;53.23;;;22.90;;
25982;SDS011;13773;48.868;10.730;2023-02-13T07:13:12;74.40;;;22.23;;
25982;SDS011;13773;48.868;10.730;2023-02-13T07:15:38;58.30;;;23.43;;
25982;SDS011;13773;48.868;10.730;2023-02-13T07:18:04;57.77;;;23.00;;
25982;SDS011;13773;48.868;10.730;2023-02-13T07:20:30;69.07;;;22.50;;
25982;SDS011;13773;48.868;10.730;2023-02-13T07:23:00;64.77;;;22.73;;
25982;SDS011;13773;48.868;10.730;2023-02-13T07:25:27;69.37;;;22.30;;
25982;SDS011;13773;48.868;10.730;2023-02-13T07:27:53;70.63;;;22.77;;
25982;SDS011;13773;48.868;10.730;2023-02-13T07:30:19;52.57;;;22.43;;
25982;SDS011;13773;48.868;10.730;2023-02-13T07:32:45;61.37;;;25.23;;
25982;SDS011;13773;48.868;10.730;2023-02-13T07:35:10;82.67;;;23.13;;
25982;SDS011;13773;48.868;10.730;2023-02-13T07:37:36;54.87;;;22.60;;
25982;SDS011;13773;48.868;10.730;2023-02-13T07:40:02;54.47;;;21.67;;
25982;SDS011;13773;48.868;10.730;2023-02-13T07:42:29;49.80;;;21.97;;
25982;SDS011;13773;48.868;10.730;2023-02-13T07:44:57;57.03;;;21.37;;
25982;SDS011;13773;48.868;10.730;2023-02-13T07:47:23;67.37;;;22.13;;
25982;SDS011;13773;48.868;10.730;2023-02-13T07:49:48;62.20;;;21.57;;
25982;SDS011;13773;48.868;10.730;2023-02-13T07:52:14;72.63;;;22.63;;
25982;SDS011;13773;48.868;10.730;2023-02-13T07:54:40;78.93;;;21.13;;
25982;SDS011;13773;48.868;10.730;2023-02-13T07:57:11;101.90;;;24.40;;
25982;SDS011;13773;48.868;10.730;2023-02-13T07:59:40;65.03;;;21.63;;
25982;SDS011;13773;48.868;10.730;2023-02-13T08:02:10;54.47;;;22.83;;
25982;SDS011;13773;48.868;10.730;2023-02-13T08:04:39;47.67;;;21.97;;
25982;SDS011;13773;48.868;10.730;2023-02-13T08:07:05;62.40;;;21.47;;
25982;SDS011;13773;48.868;10.730;2023-02-13T08:09:31;58.23;;;21.97;;
25982;SDS011;13773;48.868;10.730;2023-02-13T08:12:15;44.23;;;20.60;;
25982;SDS011;13773;48.868;10.730;2023-02-13T08:14:41;49.63;;;20.73;;
25982;SDS011;13773;48.868;10.730;2023-02-13T08:17:08;50.97;;;21.27;;
25982;SDS011;13773;48.868;10.730;2023-02-13T08:19:34;39.70;;;22.40;;
25982;SDS011;13773;48.868;10.730;2023-02-13T08:22:00;55.77;;;19.77;;
25982;SDS011;13773;48.868;10.730;2023-02-13T08:24:25;43.40;;;20.57;;
25982;SDS011;13773;48.868;10.730;2023-02-13T08:26:51;43.80;;;20.63;;
25982;SDS011;13773;48.868;10.730;2023-02-13T08:29:17;40.57;;;20.20;;
25982;SDS011;13773;48.868;10.730;2023-02-13T08:31:42;63.40;;;20.87;;
25982;SDS011;13773;48.868;10.730;2023-02-13T08:34:08;42.23;;;19.97;;
25982;SDS011;13773;48.868;10.730;2023-02-13T08:36:34;39.33;;;19.53;;
25982;SDS011;13773;48.868;10.730;2023-02-13T08:39:00;44.13;;;19.20;;
25982;SDS011;13773;48.868;10.730;2023-02-13T08:41:28;34.37;;;18.60;;
25982;SDS011;13773;48.868;10.730;2023-02-13T08:43:55;36.83;;;18.33;;
25982;SDS011;13773;48.868;10.730;2023-02-13T08:46:23;36.50;;;17.23;;
25982;SDS011;13773;48.868;10.730;2023-02-13T08:48:50;34.23;;;18.57;;
25982;SDS011;13773;48.868;10.730;2023-02-13T08:51:16;29.73;;;16.53;;
25982;SDS011;13773;48.868;10.730;2023-02-13T08:53:43;27.73;;;15.97;;
25982;SDS011;13773;48.868;10.730;2023-02-13T08:56:09;32.80;;;16.27;;
25982;SDS011;13773;48.868;10.730;2023-02-13T08:58:35;25.67;;;15.30;;
25982;SDS011;13773;48.868;10.730;2023-02-13T09:01:04;21.87;;;13.97;;
25982;SDS011;13773;48.868;10.730;2023-02-13T09:03:42;29.17;;;15.27;;
25982;SDS011;13773;48.868;10.730;2023-02-13T09:06:08;24.60;;;13.93;;
25982;SDS011;13773;48.868;10.730;2023-02-13T09:08:42;32.73;;;14.60;;
25982;SDS011;13773;48.868;10.730;2023-02-13T09:11:39;18.53;;;13.43;;
25982;SDS011;13773;48.868;10.730;2023-02-13T09:14:18;18.20;;;13.30;;
25982;SDS011;13773;48.868;10.730;2023-02-13T09:16:49;21.37;;;13.20;;
25982;SDS011;13773;48.868;10.730;2023-02-13T09:19:21;27.27;;;13.03;;
25982;SDS011;13773;48.868;10.730;2023-02-13T09:22:04;19.20;;;11.90;;
25982;SDS011;13773;48.868;10.730;2023-02-13T09:24:31;22.27;;;12.47;;
25982;SDS011;13773;48.868;10.730;2023-02-13T09:27:04;19.50;;;12.67;;
25982;SDS011;13773;48.868;10.730;2023-02-13T09:29:33;17.90;;;12.63;;
25982;SDS011;13773;48.868;10.730;2023-02-13T09:31:59;20.47;;;12.77;;
25982;SDS011;13773;48.868;10.730;2023-02-13T09:34:25;19.67;;;12.43;;
25982;SDS011;13773;48.868;10.730;2023-02-13T09:36:51;23.10;;;13.10;;
25982;SDS011;13773;48.868;10.730;2023-02-13T09:39:27;18.27;;;11.50;;
25982;SDS011;13773;48.868;10.730;2023-02-13T09:41:53;23.37;;;13.10;;
25982;SDS011;13773;48.868;10.730;2023-02-13T09:44:36;21.17;;;13.30;;
25982;SDS011;13773;48.868;10.730;2023-02-13T09:49:56;18.20;;;12.20;;
25982;SDS011;13773;48.868;10.730;2023-02-13T09:53:00;16.40;;;12.17;;
25982;SDS011;13773;48.868;10.730;2023-02-13T09:55:28;20.27;;;13.70;;
25982;SDS011;13773;48.868;10.730;2023-02-13T10:01:33;16.83;;;13.10;;
25982;SDS011;13773;48.868;10.730;2023-02-13T10:07:44;15.57;;;12.27;;
25982;SDS011;13773;48.868;10.730;2023-02-13T10:16:57;16.93;;;12.60;;
25982;SDS011;13773;48.868;10.730;2023-02-13T10:19:49;17.33;;;12.83;;
25982;SDS011;13773;48.868;10.730;2023-02-13T10:25:35;17.17;;;12.73;;
25982;SDS011;13773;48.868;10.730;2023-02-13T10:28:16;16.23;;;12.47;;
25982;SDS011;13773;48.868;10.730;2023-02-13T10:31:39;17.07;;;12.10;;
25982;SDS011;13773;48.868;10.730;2023-02-13T10:34:16;15.57;;;11.87;;
25982;SDS011;13773;48.868;10.730;2023-02-13T10:36:47;15.60;;;12.57;;
25982;SDS011;13773;48.868;10.730;2023-02-13T10:39:27;15.53;;;11.77;;
25982;SDS011;13773;48.868;10.730;2023-02-13T10:42:25;17.23;;;12.70;;
25982;SDS011;13773;48.868;10.730;2023-02-13T10:45:02;16.60;;;12.60;;
25982;SDS011;13773;48.868;10.730;2023-02-13T11:01:59;16.73;;;11.87;;
25982;SDS011;13773;48.868;10.730;2023-02-13T11:04:41;16.13;;;12.80;;
25982;SDS011;13773;48.868;10.730;2023-02-13T11:07:10;13.20;;;10.90;;
25982;SDS011;13773;48.868;10.730;2023-02-13T11:09:40;16.27;;;12.07;;
25982;SDS011;13773;48.868;10.730;2023-02-13T11:12:29;16.73;;;12.83;;
25982;SDS011;13773;48.868;10.730;2023-02-13T11:15:00;16.43;;;12.40;;
25982;SDS011;13773;48.868;10.730;2023-02-13T11:17:31;16.20;;;12.80;;
25982;SDS011;13773;48.868;10.730;2023-02-13T11:22:56;16.43;;;12.63;;
25982;SDS011;13773;48.868;10.730;2023-02-13T11:25:51;16.13;;;12.70;;
25982;SDS011;13773;48.868;10.730;2023-02-13T11:28:28;17.00;;;13.00;;
25982;SDS011;13773;48.868;10.730;2023-02-13T11:31:08;17.50;;;13.27;;
25982;SDS011;13773;48.868;10.730;2023-02-13T11:33:55;17.87;;;12.50;;
25982;SDS011;13773;48.868;10.730;2023-02-13T11:36:29;15.63;;;12.27;;
25982;SDS011;13773;48.868;10.730;2023-02-13T11:38:58;18.80;;;13.83;;
25982;SDS011;13773;48.868;10.730;2023-02-13T11:41:39;17.50;;;13.23;;
25982;SDS011;13773;48.868;10.730;2023-02-13T11:46:55;16.87;;;13.07;;
25982;SDS011;13773;48.868;10.730;2023-02-13T11:49:26;18.17;;;13.80;;
25982;SDS011;13773;48.868;10.730;2023-02-13T11:51:57;18.17;;;13.47;;
25982;SDS011;13773;48.868;10.730;2023-02-13T11:59:49;17.00;;;13.20;;
25982;SDS011;13773;48.868;10.730;2023-02-13T12:02:18;19.07;;;13.67;;
25982;SDS011;13773;48.868;10.730;2023-02-13T12:04:45;16.73;;;13.53;;
25982;SDS011;13773;48.868;10.730;2023-02-13T12:07:20;17.70;;;13.40;;
25982;SDS011;13773;48.868;10.730;2023-02-13T12:09:52;18.90;;;14.03;;
25982;SDS011;13773;48.868;10.730;2023-02-13T12:12:31;18.00;;;13.87;;
25982;SDS011;13773;48.868;10.730;2023-02-13T12:15:31;19.53;;;14.30;;
25982;SDS011;13773;48.868;10.730;2023-02-13T12:18:18;19.50;;;14.63;;
25982;SDS011;13773;48.868;10.730;2023-02-13T12:27:22;20.07;;;14.03;;
25982;SDS011;13773;48.868;10.730;2023-02-13T12:29:44;18.50;;;15.13;;
25982;SDS011;13773;48.868;10.730;2023-02-13T12:45:52;23.00;;;15.30;;
25982;SDS011;13773;48.868;10.730;2023-02-13T12:48:42;19.00;;;14.37;;
25982;SDS011;13773;48.868;10.730;2023-02-13T13:00:53;22.77;;;15.00;;
25982;SDS011;13773;48.868;10.730;2023-02-13T13:06:24;22.23;;;15.03;;
25982;SDS011;13773;48.868;10.730;2023-02-13T13:21:24;21.17;;;15.40;;
25982;SDS011;13773;48.868;10.730;2023-02-13T13:23:57;22.73;;;16.80;;
25982;SDS011;13773;48.868;10.730;2023-02-13T13:26:31;24.43;;;17.10;;
25982;SDS011;13773;48.868;10.730;2023-02-13T13:29:02;21.83;;;15.93;;
25982;SDS011;13773;48.868;10.730;2023-02-13T13:31:39;22.67;;;15.77;;
25982;SDS011;13773;48.868;10.730;2023-02-13T13:34:07;24.97;;;16.33;;
25982;SDS011;13773;48.868;10.730;2023-02-13T13:36:50;25.00;;;16.87;;
25982;SDS011;13773;48.868;10.730;2023-02-13T13:50:23;24.50;;;17.33;;
25982;SDS011;13773;48.868;10.730;2023-02-13T13:53:05;24.17;;;17.13;;
25982;SDS011;13773;48.868;10.730;2023-02-13T14:01:22;26.83;;;17.47;;
25982;SDS011;13773;48.868;10.730;2023-02-13T14:04:03;27.83;;;18.17;;
25982;SDS011;13773;48.868;10.730;2023-02-13T14:09:39;25.30;;;16.53;;
25982;SDS011;13773;48.868;10.730;2023-02-13T14:12:34;26.87;;;16.77;;
25982;SDS011;13773;48.868;10.730;2023-02-13T14:14:58;28.13;;;18.30;;
25982;SDS011;13773;48.868;10.730;2023-02-13T14:20:22;28.70;;;18.60;;
25982;SDS011;13773;48.868;10.730;2023-02-13T14:23:14;28.40;;;17.73;;
25982;SDS011;13773;48.868;10.730;2023-02-13T14:32:02;28.03;;;17.90;;
25982;SDS011;13773;48.868;10.730;2023-02-13T14:34:40;32.47;;;20.43;;
25982;SDS011;13773;48.868;10.730;2023-02-13T14:39:37;29.17;;;18.53;;
25982;SDS011;13773;48.868;10.730;2023-02-13T14:42:25;28.97;;;18.73;;
25982;SDS011;13773;48.868;10.730;2023-02-13T14:44:55;29.67;;;18.87;;
25982;SDS011;13773;48.868;10.730;2023-02-13T14:47:35;30.90;;;19.17;;
25982;SDS011;13773;48.868;10.730;2023-02-13T14:50:06;34.37;;;19.87;;
25982;SDS011;13773;48.868;10.730;2023-02-13T14:52:45;32.10;;;19.33;;
25982;SDS011;13773;48.868;10.730;2023-02-13T14:58:08;33.83;;;20.67;;
25982;SDS011;13773;48.868;10.730;2023-02-13T15:00:45;32.80;;;20.37;;
25982;SDS011;13773;48.868;10.730;2023-02-13T15:03:26;36.57;;;21.60;;
25982;SDS011;13773;48.868;10.730;2023-02-13T15:05:56;45.93;;;24.50;;
25982;SDS011;13773;48.868;10.730;2023-02-13T15:08:28;46.30;;;25.23;;
25982;SDS011;13773;48.868;10.730;2023-02-13T15:10:59;36.13;;;21.77;;
25982;SDS011;13773;48.868;10.730;2023-02-13T15:13:30;36.30;;;22.03;;
25982;SDS011;13773;48.868;10.730;2023-02-13T15:16:02;32.27;;;20.50;;
25982;SDS011;13773;48.868;10.730;2023-02-13T15:18:46;37.60;;;22.17;;
25982;SDS011;13773;48.868;10.730;2023-02-13T15:21:22;38.70;;;21.77;;
25982;SDS011;13773;48.868;10.730;2023-02-13T15:23:49;33.87;;;21.87;;
25982;SDS011;13773;48.868;10.730;2023-02-13T15:26:21;37.87;;;22.63;;
25982;SDS011;13773;48.868;10.730;2023-02-13T15:29:00;38.90;;;21.53;;
25982;SDS011;13773;48.868;10.730;2023-02-13T15:31:29;36.53;;;21.93;;
25982;SDS011;13773;48.868;10.730;2023-02-13T15:34:02;33.17;;;21.07;;
25982;SDS011;13773;48.868;10.730;2023-02-13T15:36:35;38.13;;;21.40;;
25982;SDS011;13773;48.868;10.730;2023-02-13T15:39:05;40.23;;;22.87;;
25982;SDS011;13773;48.868;10.730;2023-02-13T15:41:37;40.23;;;21.47;;
25982;SDS011;13773;48.868;10.730;2023-02-13T15:44:06;41.33;;;23.63;;
25982;SDS011;13773;48.868;10.730;2023-02-13T15:46:37;43.00;;;23.30;;
25982;SDS011;13773;48.868;10.730;2023-02-13T15:49:04;45.60;;;27.37;;
25982;SDS011;13773;48.868;10.730;2023-02-13T15:51:33;45.17;;;23.70;;
25982;SDS011;13773;48.868;10.730;2023-02-13T15:54:00;51.00;;;28.07;;
25982;SDS011;13773;48.868;10.730;2023-02-13T15:56:29;60.17;;;34.17;;
25982;SDS011;13773;48.868;10.730;2023-02-13T15:58:56;48.23;;;27.93;;
25982;SDS011;13773;48.868;10.730;2023-02-13T16:01:23;55.43;;;29.57;;
25982;SDS011;13773;48.868;10.730;2023-02-13T16:03:57;38.83;;;23.03;;
25982;SDS011;13773;48.868;10.730;2023-02-13T16:06:26;42.40;;;23.30;;
25982;SDS011;13773;48.868;10.730;2023-02-13T16:08:53;64.43;;;34.03;;
25982;SDS011;13773;48.868;10.730;2023-02-13T16:22:13;42.30;;;23.57;;
25982;SDS011;13773;48.868;10.730;2023-02-13T16:24:48;42.57;;;22.70;;
25982;SDS011;13773;48.868;10.730;2023-02-13T16:27:16;46.60;;;24.60;;
25982;SDS011;13773;48.868;10.730;2023-02-13T16:29:50;43.47;;;23.20;;
25982;SDS011;13773;48.868;10.730;2023-02-13T16:32:30;42.83;;;22.70;;
25982;SDS011;13773;48.868;10.730;2023-02-13T16:35:14;44.10;;;24.30;;
25982;SDS011;13773;48.868;10.730;2023-02-13T16:37:56;47.07;;;23.50;;
25982;SDS011;13773;48.868;10.730;2023-02-13T16:46:10;46.80;;;24.60;;
25982;SDS011;13773;48.868;10.730;2023-02-13T16:48:37;45.97;;;24.47;;
25982;SDS011;13773;48.868;10.730;2023-02-13T16:51:03;48.07;;;24.77;;
25982;SDS011;13773;48.868;10.730;2023-02-13T16:53:28;47.43;;;24.83;;
25982;SDS011;13773;48.868;10.730;2023-02-13T16:55:58;45.60;;;24.67;;
25982;SDS011;13773;48.868;10.730;2023-02-13T16:58:26;41.50;;;24.70;;
25982;SDS011;13773;48.868;10.730;2023-02-13T17:00:52;46.17;;;24.97;;
25982;SDS011;13773;48.868;10.730;2023-02-13T17:03:19;47.17;;;24.57;;
25982;SDS011;13773;48.868;10.730;2023-02-13T17:05:45;46.23;;;25.83;;
25982;SDS011;13773;48.868;10.730;2023-02-13T17:08:10;44.23;;;24.63;;
25982;SDS011;13773;48.868;10.730;2023-02-13T17:10:37;47.67;;;25.20;;
25982;SDS011;13773;48.868;10.730;2023-02-13T17:13:14;49.13;;;26.43;;
25982;SDS011;13773;48.868;10.730;2023-02-13T17:15:45;45.77;;;23.73;;
25982;SDS011;13773;48.868;10.730;2023-02-13T17:18:11;45.60;;;24.77;;
25982;SDS011;13773;48.868;10.730;2023-02-13T17:20:39;48.13;;;25.47;;
25982;SDS011;13773;48.868;10.730;2023-02-13T17:23:07;42.27;;;24.47;;
25982;SDS011;13773;48.868;10.730;2023-02-13T17:25:41;49.87;;;27.70;;
25982;SDS011;13773;48.868;10.730;2023-02-13T17:28:12;48.43;;;27.73;;
25982;SDS011;13773;48.868;10.730;2023-02-13T17:30:40;43.23;;;25.43;;
25982;SDS011;13773;48.868;10.730;2023-02-13T17:33:17;44.93;;;26.57;;
25982;SDS011;13773;48.868;10.730;2023-02-13T17:35:45;45.40;;;24.63;;
25982;SDS011;13773;48.868;10.730;2023-02-13T17:38:11;43.80;;;25.27;;
25982;SDS011;13773;48.868;10.730;2023-02-13T17:40:37;40.53;;;25.80;;